Private Wetterstation Sandau
Wetterdaten: Sonntag, 09.09.2012
Datum Zeit Temp. A. Feuchte A. Luftdruck Regen Wind Richtung Richtung Taupunkt Windchill
09.09.2012 00:01 13,4 C 86 % 1020,6 hPa 0,0 l/m 0,0 km/h (0 Bft) W-NW 292 11,1 C 13,4 C
09.09.2012 00:06 13,4 C 87 % 1020,5 hPa 0,0 l/m 0,0 km/h (0 Bft) W-NW 292 11,3 C 13,4 C
09.09.2012 00:11 13,4 C 87 % 1020,6 hPa 0,0 l/m 0,0 km/h (0 Bft) W-NW 292 11,3 C 13,4 C
09.09.2012 00:16 13,3 C 87 % 1020,5 hPa 0,0 l/m 0,0 km/h (0 Bft) W-NW 292 11,2 C 13,3 C
09.09.2012 00:21 13,2 C 87 % 1020,6 hPa 0,0 l/m 0,0 km/h (0 Bft) W-NW 292 11,1 C 13,2 C
09.09.2012 00:26 13,1 C 86 % 1020,7 hPa 0,0 l/m 0,0 km/h (0 Bft) W-NW 292 10,8 C 13,1 C
09.09.2012 00:31 12,9 C 86 % 1020,6 hPa 0,0 l/m 0,0 km/h (0 Bft) W-NW 292 10,6 C 12,9 C
09.09.2012 00:36 12,9 C 87 % 1020,7 hPa 0,0 l/m 0,0 km/h (0 Bft) W-NW 292 10,8 C 12,9 C
09.09.2012 00:41 12,9 C 87 % 1020,6 hPa 0,0 l/m 0,0 km/h (0 Bft) W-NW 292 10,8 C 12,9 C
09.09.2012 00:46 12,9 C 87 % 1020,7 hPa 0,0 l/m 0,0 km/h (0 Bft) W-NW 292 10,8 C 12,9 C
09.09.2012 00:51 12,9 C 87 % 1020,6 hPa 0,0 l/m 0,0 km/h (0 Bft) W-NW 292 10,8 C 12,9 C
09.09.2012 00:56 12,9 C 87 % 1020,6 hPa 0,0 l/m 0,0 km/h (0 Bft) SW 225 10,8 C 12,9 C
09.09.2012 01:01 12,8 C 87 % 1020,8 hPa 0,0 l/m 0,0 km/h (0 Bft) SW 225 10,7 C 12,8 C
09.09.2012 01:06 12,7 C 87 % 1020,4 hPa 0,0 l/m 0,0 km/h (0 Bft) SW 225 10,6 C 12,7 C
09.09.2012 01:11 12,7 C 87 % 1020,5 hPa 0,0 l/m 0,0 km/h (0 Bft) SW 225 10,6 C 12,7 C
09.09.2012 01:16 12,8 C 87 % 1020,5 hPa 0,0 l/m 0,0 km/h (0 Bft) SW 225 10,7 C 12,8 C
09.09.2012 01:21 12,8 C 87 % 1020,4 hPa 0,0 l/m 0,0 km/h (0 Bft) SW 225 10,7 C 12,8 C
09.09.2012 01:26 12,7 C 87 % 1020,5 hPa 0,0 l/m 0,0 km/h (0 Bft) SW 225 10,6 C 12,7 C
09.09.2012 01:31 12,7 C 88 % 1020,4 hPa 0,0 l/m 0,0 km/h (0 Bft) SW 225 10,8 C 12,7 C
09.09.2012 01:36 12,7 C 88 % 1020,4 hPa 0,0 l/m 0,0 km/h (0 Bft) SW 225 10,8 C 12,7 C
09.09.2012 01:41 12,6 C 88 % 1020,4 hPa 0,0 l/m 0,0 km/h (0 Bft) SW 225 10,7 C 12,6 C
09.09.2012 01:46 12,6 C 88 % 1020,4 hPa 0,0 l/m 0,0 km/h (0 Bft) SW 225 10,7 C 12,6 C
09.09.2012 01:51 12,6 C 88 % 1020,4 hPa 0,0 l/m 0,0 km/h (0 Bft) SW 225 10,7 C 12,6 C
09.09.2012 01:56 12,5 C 88 % 1020,4 hPa 0,0 l/m 0,0 km/h (0 Bft) SW 225 10,6 C 12,5 C
09.09.2012 02:01 12,4 C 88 % 1020,3 hPa 0,0 l/m 0,0 km/h (0 Bft) SW 225 10,5 C 12,4 C
09.09.2012 02:06 12,5 C 89 % 1020,3 hPa 0,0 l/m 0,0 km/h (0 Bft) SW 225 10,7 C 12,5 C
09.09.2012 02:11 12,4 C 89 % 1020,3 hPa 0,0 l/m 0,0 km/h (0 Bft) SW 225 10,6 C 12,4 C
09.09.2012 02:16 12,4 C 88 % 1020,3 hPa 0,0 l/m 0,0 km/h (0 Bft) SW 225 10,5 C 12,4 C
09.09.2012 02:21 12,3 C 88 % 1020,4 hPa 0,0 l/m 1,4 km/h (1 Bft) SW 225 10,4 C 12,3 C
09.09.2012 02:26 12,2 C 88 % 1020,4 hPa 0,5 l/m 0,0 km/h (0 Bft) SW 225 10,3 C 12,2 C
09.09.2012 02:31 12,2 C 88 % 1020,4 hPa 0,0 l/m 2,2 km/h (1 Bft) SW 225 10,3 C 12,2 C
09.09.2012 02:36 12,2 C 88 % 1020,4 hPa 0,0 l/m 0,0 km/h (0 Bft) SW 225 10,3 C 12,2 C
09.09.2012 02:41 12,1 C 88 % 1020,5 hPa 0,0 l/m 0,0 km/h (0 Bft) SW 225 10,2 C 12,1 C
09.09.2012 02:46 12,0 C 88 % 1020,5 hPa 0,0 l/m 0,0 km/h (0 Bft) SW 225 10,1 C 12,0 C
09.09.2012 02:51 11,9 C 88 % 1020,5 hPa 0,0 l/m 0,0 km/h (0 Bft) SW 225 10,0 C 11,9 C
09.09.2012 02:56 11,9 C 88 % 1020,4 hPa 0,0 l/m 0,0 km/h (0 Bft) SW 225 10,0 C 11,9 C
09.09.2012 03:01 11,9 C 88 % 1020,4 hPa 0,0 l/m 0,0 km/h (0 Bft) SW 225 10,0 C 11,9 C
09.09.2012 03:06 11,9 C 88 % 1020,4 hPa 0,0 l/m 0,0 km/h (0 Bft) SW 225 10,0 C 11,9 C
09.09.2012 03:11 11,9 C 89 % 1020,3 hPa 0,0 l/m 0,0 km/h (0 Bft) SW 225 10,1 C 11,9 C
09.09.2012 03:16 12,0 C 89 % 1020,4 hPa 0,0 l/m 0,0 km/h (0 Bft) SW 225 10,2 C 12,0 C
09.09.2012 03:21 11,9 C 89 % 1020,4 hPa 0,0 l/m 0,0 km/h (0 Bft) SW 225 10,1 C 11,9 C
09.09.2012 03:26 11,9 C 89 % 1020,4 hPa 0,0 l/m 0,0 km/h (0 Bft) SW 225 10,1 C 11,9 C
09.09.2012 03:31 11,9 C 89 % 1020,4 hPa 0,0 l/m 0,0 km/h (0 Bft) SW 225 10,1 C 11,9 C
09.09.2012 03:36 11,9 C 89 % 1020,4 hPa 0,0 l/m 0,0 km/h (0 Bft) SW 225 10,1 C 11,9 C
09.09.2012 03:41 11,9 C 89 % 1020,5 hPa 0,0 l/m 0,0 km/h (0 Bft) SW 225 10,1 C 11,9 C
09.09.2012 03:46 11,9 C 89 % 1020,6 hPa 0,0 l/m 0,0 km/h (0 Bft) SW 225 10,1 C 11,9 C
09.09.2012 03:51 12,0 C 89 % 1020,5 hPa 0,0 l/m 0,0 km/h (0 Bft) SW 225 10,2 C 12,0 C
09.09.2012 03:56 12,1 C 89 % 1020,6 hPa 0,0 l/m 0,0 km/h (0 Bft) SW 225 10,3 C 12,1 C
09.09.2012 04:01 12,1 C 90 % 1020,5 hPa 0,0 l/m 0,0 km/h (0 Bft) SW 225 10,5 C 12,1 C
09.09.2012 04:06 12,2 C 90 % 1020,5 hPa 0,0 l/m 0,0 km/h (0 Bft) SW 225 10,6 C 12,2 C
09.09.2012 04:11 12,3 C 90 % 1020,4 hPa 0,0 l/m 0,0 km/h (0 Bft) SW 225 10,7 C 12,3 C
09.09.2012 04:16 12,3 C 90 % 1020,4 hPa 0,0 l/m 0,0 km/h (0 Bft) SW 225 10,7 C 12,3 C
09.09.2012 04:21 12,3 C 90 % 1020,5 hPa 0,0 l/m 0,0 km/h (0 Bft) SW 225 10,7 C 12,3 C
09.09.2012 04:26 12,3 C 90 % 1020,5 hPa 0,0 l/m 0,0 km/h (0 Bft) SW 225 10,7 C 12,3 C
09.09.2012 04:31 12,3 C 90 % 1020,4 hPa 0,0 l/m 0,0 km/h (0 Bft) SW 225 10,7 C 12,3 C
09.09.2012 04:36 12,3 C 90 % 1020,4 hPa 0,0 l/m 0,0 km/h (0 Bft) SW 225 10,7 C 12,3 C
09.09.2012 04:41 12,4 C 90 % 1020,4 hPa 0,0 l/m 0,0 km/h (0 Bft) SW 225 10,8 C 12,4 C
09.09.2012 04:46 12,3 C 90 % 1020,4 hPa 0,0 l/m 0,0 km/h (0 Bft) SW 225 10,7 C 12,3 C
09.09.2012 04:51 12,4 C 90 % 1020,5 hPa 0,0 l/m 0,0 km/h (0 Bft) SW 225 10,8 C 12,4 C
09.09.2012 04:56 12,4 C 90 % 1020,4 hPa 0,0 l/m 0,0 km/h (0 Bft) SW 225 10,8 C 12,4 C
09.09.2012 05:01 12,4 C 90 % 1020,4 hPa 0,0 l/m 0,0 km/h (0 Bft) SW 225 10,8 C 12,4 C
09.09.2012 05:06 12,5 C 90 % 1020,4 hPa 0,0 l/m 0,0 km/h (0 Bft) SW 225 10,9 C 12,5 C
09.09.2012 05:11 12,5 C 90 % 1020,4 hPa 0,0 l/m 0,0 km/h (0 Bft) S 180 10,9 C 12,5 C
09.09.2012 05:16 12,5 C 90 % 1020,5 hPa 0,0 l/m 2,5 km/h (1 Bft) S 180 10,9 C 12,5 C
09.09.2012 05:21 12,6 C 90 % 1020,6 hPa 0,0 l/m 1,4 km/h (1 Bft) S 180 11,0 C 12,6 C
09.09.2012 05:26 12,6 C 90 % 1020,5 hPa 0,0 l/m 0,0 km/h (0 Bft) S 180 11,0 C 12,6 C
09.09.2012 05:31 12,6 C 90 % 1020,6 hPa 0,0 l/m 2,2 km/h (1 Bft) S 180 11,0 C 12,6 C
09.09.2012 05:36 12,6 C 90 % 1020,4 hPa 0,0 l/m 0,0 km/h (0 Bft) S 180 11,0 C 12,6 C
09.09.2012 05:41 12,6 C 90 % 1020,4 hPa 0,0 l/m 0,0 km/h (0 Bft) S 180 11,0 C 12,6 C
09.09.2012 05:46 12,7 C 90 % 1020,5 hPa 0,0 l/m 0,0 km/h (0 Bft) S 180 11,1 C 12,7 C
09.09.2012 05:51 12,7 C 90 % 1020,5 hPa 0,0 l/m 0,0 km/h (0 Bft) S 180 11,1 C 12,7 C
09.09.2012 05:56 12,7 C 90 % 1020,6 hPa 0,0 l/m 1,1 km/h (1 Bft) S 180 11,1 C 12,7 C
09.09.2012 06:01 12,8 C 90 % 1020,5 hPa 0,0 l/m 1,1 km/h (1 Bft) S-SO 157 11,2 C 12,8 C
09.09.2012 06:06 12,8 C 90 % 1020,5 hPa 0,0 l/m 0,0 km/h (0 Bft) S-SO 157 11,2 C 12,8 C
09.09.2012 06:11 12,8 C 90 % 1020,6 hPa 0,0 l/m 1,1 km/h (1 Bft) S-SO 157 11,2 C 12,8 C
09.09.2012 06:16 12,9 C 90 % 1020,6 hPa 0,0 l/m 0,0 km/h (0 Bft) S-SO 157 11,3 C 12,9 C
09.09.2012 06:21 12,9 C 90 % 1020,7 hPa 0,0 l/m 2,2 km/h (1 Bft) S-SO 157 11,3 C 12,9 C
09.09.2012 06:26 12,9 C 90 % 1020,6 hPa 0,0 l/m 0,0 km/h (0 Bft) S-SO 157 11,3 C 12,9 C
09.09.2012 06:31 13,0 C 90 % 1020,7 hPa 0,0 l/m 1,4 km/h (1 Bft) S-SO 157 11,4 C 13,0 C
09.09.2012 06:36 13,1 C 90 % 1020,7 hPa 0,0 l/m 3,2 km/h (1 Bft) SO 135 11,5 C 13,1 C
09.09.2012 06:41 13,1 C 90 % 1020,7 hPa 0,0 l/m 2,9 km/h (1 Bft) S-SO 157 11,5 C 13,1 C
09.09.2012 06:46 13,1 C 90 % 1020,7 hPa 0,0 l/m 2,2 km/h (1 Bft) S 180 11,5 C 13,1 C
09.09.2012 06:51 13,1 C 90 % 1020,7 hPa 0,0 l/m 4,0 km/h (1 Bft) SO 135 11,5 C 13,1 C
09.09.2012 06:56 13,1 C 90 % 1020,7 hPa 0,0 l/m 1,8 km/h (1 Bft) S-SO 157 11,5 C 13,1 C
09.09.2012 07:01 13,1 C 90 % 1020,8 hPa 0,0 l/m 0,0 km/h (0 Bft) SO 135 11,5 C 13,1 C
09.09.2012 07:06 13,2 C 90 % 1020,8 hPa 0,0 l/m 0,0 km/h (0 Bft) SO 135 11,6 C 13,2 C
09.09.2012 07:11 13,2 C 90 % 1020,6 hPa 0,0 l/m 0,0 km/h (0 Bft) SO 135 11,6 C 13,2 C
09.09.2012 07:16 13,3 C 91 % 1020,8 hPa 0,0 l/m 2,9 km/h (1 Bft) SO 135 11,9 C 13,3 C
09.09.2012 07:21 13,3 C 91 % 1020,7 hPa 0,0 l/m 3,2 km/h (1 Bft) SO 135 11,9 C 13,3 C
09.09.2012 07:26 13,3 C 91 % 1020,7 hPa 0,0 l/m 0,0 km/h (0 Bft) O-SO 112 11,9 C 13,3 C
09.09.2012 07:31 13,3 C 91 % 1020,7 hPa 0,0 l/m 2,5 km/h (1 Bft) O-SO 112 11,9 C 13,3 C
09.09.2012 07:36 13,4 C 91 % 1020,7 hPa 0,0 l/m 1,8 km/h (1 Bft) O-SO 112 12,0 C 13,4 C
09.09.2012 07:41 13,4 C 91 % 1020,8 hPa 0,0 l/m 0,0 km/h (0 Bft) O-SO 112 12,0 C 13,4 C
09.09.2012 07:46 13,5 C 91 % 1020,7 hPa 0,0 l/m 4,0 km/h (1 Bft) O-SO 112 12,1 C 13,5 C
09.09.2012 07:51 13,5 C 91 % 1020,6 hPa 0,0 l/m 0,0 km/h (0 Bft) SO 135 12,1 C 13,5 C
09.09.2012 07:56 13,6 C 91 % 1020,7 hPa 0,0 l/m 2,2 km/h (1 Bft) SO 135 12,2 C 13,6 C
09.09.2012 08:01 13,7 C 91 % 1020,6 hPa 0,0 l/m 3,2 km/h (1 Bft) O-SO 112 12,3 C 13,7 C
09.09.2012 08:06 13,8 C 91 % 1020,6 hPa 0,0 l/m 3,6 km/h (1 Bft) O-SO 112 12,4 C 13,8 C
09.09.2012 08:11 13,9 C 91 % 1020,5 hPa 0,0 l/m 4,7 km/h (1 Bft) O-SO 112 12,5 C 13,9 C
09.09.2012 08:16 13,9 C 91 % 1020,4 hPa 0,0 l/m 1,8 km/h (1 Bft) O-SO 112 12,5 C 13,9 C
09.09.2012 08:21 14,1 C 91 % 1020,5 hPa 0,0 l/m 3,2 km/h (1 Bft) O-SO 112 12,7 C 14,1 C
09.09.2012 08:26 14,2 C 91 % 1020,4 hPa 0,0 l/m 2,9 km/h (1 Bft) SO 135 12,8 C 14,2 C
09.09.2012 08:31 14,4 C 91 % 1020,5 hPa 0,0 l/m 5,0 km/h (1 Bft) O-SO 112 12,9 C 14,4 C
09.09.2012 08:36 14,6 C 91 % 1020,5 hPa 0,0 l/m 2,5 km/h (1 Bft) O-SO 112 13,1 C 14,6 C
09.09.2012 08:41 14,8 C 91 % 1020,4 hPa 0,0 l/m 4,0 km/h (1 Bft) SO 135 13,3 C 14,8 C
09.09.2012 08:46 14,9 C 90 % 1020,7 hPa 0,0 l/m 5,0 km/h (1 Bft) O-SO 112 13,3 C 14,9 C
09.09.2012 08:51 14,9 C 90 % 1020,6 hPa 0,0 l/m 1,8 km/h (1 Bft) O-NO 67 13,3 C 14,9 C
09.09.2012 08:56 14,9 C 90 % 1020,5 hPa 0,0 l/m 2,5 km/h (1 Bft) SO 135 13,3 C 14,9 C
09.09.2012 09:01 15,2 C 90 % 1020,7 hPa 0,0 l/m 3,6 km/h (1 Bft) S-SO 157 13,6 C 15,2 C
09.09.2012 09:06 15,4 C 90 % 1020,7 hPa 0,0 l/m 4,3 km/h (1 Bft) S-SO 157 13,8 C 15,4 C
09.09.2012 09:11 15,6 C 89 % 1020,6 hPa 0,0 l/m 4,3 km/h (1 Bft) S-SO 157 13,8 C 15,6 C
09.09.2012 09:16 15,8 C 89 % 1020,6 hPa 0,0 l/m 5,8 km/h (2 Bft) SO 135 14,0 C 15,8 C
09.09.2012 09:21 16,1 C 88 % 1020,7 hPa 0,0 l/m 5,0 km/h (1 Bft) SO 135 14,1 C 16,1 C
09.09.2012 09:26 16,3 C 88 % 1020,6 hPa 0,0 l/m 6,5 km/h (2 Bft) SO 135 14,3 C 16,3 C
09.09.2012 09:31 16,5 C 87 % 1020,5 hPa 0,0 l/m 6,8 km/h (2 Bft) SO 135 14,3 C 16,5 C
09.09.2012 09:36 16,6 C 86 % 1020,5 hPa 0,0 l/m 5,4 km/h (1 Bft) SO 135 14,2 C 16,6 C
09.09.2012 09:41 16,7 C 85 % 1020,7 hPa 0,0 l/m 3,6 km/h (1 Bft) O-SO 112 14,2 C 16,7 C
09.09.2012 09:46 16,9 C 85 % 1020,7 hPa 0,0 l/m 14,8 km/h (3 Bft) S-SO 157 14,4 C 16,9 C
09.09.2012 09:51 17,1 C 84 % 1020,7 hPa 0,0 l/m 8,3 km/h (2 Bft) SO 135 14,4 C 17,1 C
09.09.2012 09:56 17,3 C 83 % 1020,8 hPa 0,0 l/m 18,0 km/h (3 Bft) SO 135 14,4 C 17,3 C
09.09.2012 10:01 17,4 C 83 % 1020,7 hPa 0,0 l/m 13,0 km/h (3 Bft) O 90 14,5 C 17,4 C
09.09.2012 10:06 17,5 C 82 % 1020,8 hPa 0,0 l/m 5,0 km/h (1 Bft) S-SO 157 14,4 C 17,5 C
09.09.2012 10:11 17,6 C 82 % 1020,7 hPa 0,0 l/m 5,4 km/h (1 Bft) SO 135 14,5 C 17,6 C
09.09.2012 10:16 17,6 C 82 % 1020,8 hPa 0,0 l/m 4,0 km/h (1 Bft) SO 135 14,5 C 17,6 C
09.09.2012 10:21 17,8 C 81 % 1020,8 hPa 0,0 l/m 7,6 km/h (2 Bft) S 180 14,5 C 17,8 C
09.09.2012 10:26 17,9 C 81 % 1020,6 hPa 0,0 l/m 8,6 km/h (2 Bft) O 90 14,6 C 17,9 C
09.09.2012 10:31 18,0 C 81 % 1020,8 hPa 0,0 l/m 0,0 km/h (0 Bft) S-SO 157 14,7 C 18,0 C
09.09.2012 10:36 18,3 C 81 % 1020,7 hPa 0,0 l/m 9,4 km/h (2 Bft) S-SO 157 15,0 C 18,3 C
09.09.2012 10:41 18,6 C 79 % 1020,7 hPa 0,0 l/m 4,0 km/h (1 Bft) S-SO 157 14,9 C 18,6 C
09.09.2012 10:46 18,8 C 78 % 1020,7 hPa 0,0 l/m 4,3 km/h (1 Bft) SO 135 14,9 C 18,8 C
09.09.2012 10:51 19,0 C 78 % 1020,6 hPa 0,0 l/m 8,6 km/h (2 Bft) SO 135 15,1 C 19,0 C
09.09.2012 10:56 19,2 C 77 % 1020,7 hPa 0,0 l/m 6,1 km/h (2 Bft) O-SO 112 15,1 C 19,2 C
09.09.2012 11:01 19,4 C 77 % 1020,7 hPa 0,0 l/m 5,8 km/h (2 Bft) O 90 15,3 C 19,4 C
09.09.2012 11:06 19,6 C 76 % 1020,5 hPa 0,0 l/m 3,6 km/h (1 Bft) SO 135 15,2 C 19,6 C
09.09.2012 11:11 19,8 C 76 % 1020,4 hPa 0,0 l/m 3,2 km/h (1 Bft) SO 135 15,4 C 19,8 C
09.09.2012 11:16 19,9 C 75 % 1020,4 hPa 0,0 l/m 10,8 km/h (2 Bft) O-SO 112 15,3 C 19,9 C
09.09.2012 11:21 20,0 C 75 % 1020,4 hPa 0,0 l/m 4,0 km/h (1 Bft) SO 135 15,4 C 20,0 C
09.09.2012 11:26 20,3 C 74 % 1020,3 hPa 0,0 l/m 6,5 km/h (2 Bft) S-SO 157 15,5 C 20,3 C
09.09.2012 11:31 20,4 C 73 % 1020,3 hPa 0,0 l/m 2,9 km/h (1 Bft) SO 135 15,4 C 20,4 C
09.09.2012 11:36 20,7 C 73 % 1020,2 hPa 0,0 l/m 8,6 km/h (2 Bft) O-SO 112 15,7 C 20,7 C
09.09.2012 11:41 20,9 C 72 % 1020,1 hPa 0,0 l/m 6,5 km/h (2 Bft) SO 135 15,7 C 20,9 C
09.09.2012 11:46 21,1 C 71 % 1020,2 hPa 0,0 l/m 5,0 km/h (1 Bft) SO 135 15,6 C 21,1 C
09.09.2012 11:51 21,3 C 71 % 1020,1 hPa 0,0 l/m 10,4 km/h (2 Bft) S-SO 157 15,8 C 21,3 C
09.09.2012 11:56 21,4 C 71 % 1020,1 hPa 0,0 l/m 5,0 km/h (1 Bft) S-SO 157 15,9 C 21,4 C
09.09.2012 12:01 21,6 C 70 % 1020,0 hPa 0,0 l/m 5,8 km/h (2 Bft) SO 135 15,9 C 21,6 C
09.09.2012 12:06 21,6 C 70 % 1020,0 hPa 0,0 l/m 3,6 km/h (1 Bft) O-SO 112 15,9 C 21,6 C
09.09.2012 12:11 21,9 C 69 % 1019,9 hPa 0,0 l/m 4,7 km/h (1 Bft) S-SO 157 15,9 C 21,9 C
09.09.2012 12:16 21,9 C 69 % 1019,9 hPa 0,0 l/m 6,1 km/h (2 Bft) SO 135 15,9 C 21,9 C
09.09.2012 12:21 22,3 C 68 % 1019,8 hPa 0,0 l/m 5,4 km/h (1 Bft) SO 135 16,1 C 22,3 C
09.09.2012 12:26 22,5 C 67 % 1019,7 hPa 0,0 l/m 5,0 km/h (1 Bft) S-SO 157 16,1 C 22,5 C
09.09.2012 12:31 22,6 C 66 % 1019,7 hPa 0,0 l/m 9,4 km/h (2 Bft) SO 135 15,9 C 22,6 C
09.09.2012 12:36 22,6 C 65 % 1019,6 hPa 0,0 l/m 11,9 km/h (2 Bft) SO 135 15,7 C 22,6 C
09.09.2012 12:41 22,6 C 66 % 1019,7 hPa 0,0 l/m 14,4 km/h (3 Bft) SO 135 15,9 C 22,6 C
09.09.2012 12:46 22,9 C 65 % 1019,6 hPa 0,0 l/m 4,0 km/h (1 Bft) SW 225 16,0 C 22,9 C
09.09.2012 12:51 22,9 C 64 % 1019,4 hPa 0,0 l/m 9,4 km/h (2 Bft) SO 135 15,7 C 22,9 C
09.09.2012 12:56 22,8 C 65 % 1019,4 hPa 0,0 l/m 9,7 km/h (2 Bft) O-SO 112 15,9 C 22,8 C
09.09.2012 13:01 22,9 C 64 % 1019,3 hPa 0,0 l/m 10,8 km/h (2 Bft) O-NO 67 15,7 C 22,9 C
09.09.2012 13:06 23,0 C 64 % 1019,4 hPa 0,0 l/m 1,1 km/h (1 Bft) O 90 15,8 C 23,0 C
09.09.2012 13:11 23,2 C 64 % 1019,4 hPa 0,0 l/m 5,0 km/h (1 Bft) O 90 16,0 C 23,2 C
09.09.2012 13:16 23,3 C 64 % 1019,3 hPa 0,0 l/m 8,3 km/h (2 Bft) SO 135 16,1 C 23,3 C
09.09.2012 13:21 23,4 C 64 % 1019,2 hPa 0,0 l/m 9,0 km/h (2 Bft) S-SO 157 16,2 C 23,4 C
09.09.2012 13:26 23,6 C 63 % 1019,2 hPa 0,0 l/m 7,6 km/h (2 Bft) S 180 16,1 C 23,6 C
09.09.2012 13:31 23,8 C 62 % 1019,2 hPa 0,0 l/m 6,8 km/h (2 Bft) SO 135 16,1 C 23,8 C
09.09.2012 13:36 23,9 C 62 % 1019,0 hPa 0,0 l/m 18,0 km/h (3 Bft) SO 135 16,2 C 23,9 C
09.09.2012 13:41 23,9 C 61 % 1018,8 hPa 0,0 l/m 9,0 km/h (2 Bft) S 180 15,9 C 23,9 C
09.09.2012 13:46 24,1 C 61 % 1018,8 hPa 0,0 l/m 16,9 km/h (3 Bft) SO 135 16,1 C 24,1 C
09.09.2012 13:51 24,3 C 60 % 1018,7 hPa 0,0 l/m 9,7 km/h (2 Bft) S-SO 157 16,0 C 24,3 C
09.09.2012 13:56 24,4 C 60 % 1018,9 hPa 0,0 l/m 4,0 km/h (1 Bft) S-SO 157 16,1 C 24,4 C
09.09.2012 14:01 24,4 C 60 % 1018,9 hPa 0,0 l/m 10,4 km/h (2 Bft) SO 135 16,1 C 24,4 C
09.09.2012 14:06 24,5 C 59 % 1018,8 hPa 0,0 l/m 6,8 km/h (2 Bft) S-SO 157 15,9 C 24,5 C
09.09.2012 14:11 24,5 C 59 % 1018,7 hPa 0,0 l/m 5,0 km/h (1 Bft) O-SO 112 15,9 C 24,5 C
09.09.2012 14:16 24,6 C 59 % 1018,6 hPa 0,0 l/m 4,0 km/h (1 Bft) S-SO 157 16,0 C 24,6 C
09.09.2012 14:21 24,6 C 59 % 1018,5 hPa 0,0 l/m 4,3 km/h (1 Bft) SO 135 16,0 C 24,6 C
09.09.2012 14:26 24,6 C 59 % 1018,4 hPa 0,0 l/m 14,0 km/h (3 Bft) S-SO 157 16,0 C 24,6 C
09.09.2012 14:31 24,7 C 59 % 1018,4 hPa 0,0 l/m 11,9 km/h (2 Bft) SO 135 16,1 C 24,7 C
09.09.2012 14:36 24,8 C 60 % 1018,2 hPa 0,0 l/m 14,8 km/h (3 Bft) S-SO 157 16,5 C 24,8 C
09.09.2012 14:41 24,9 C 60 % 1018,0 hPa 0,0 l/m 4,0 km/h (1 Bft) SO 135 16,6 C 24,9 C
09.09.2012 14:46 25,3 C 58 % 1018,1 hPa 0,0 l/m 8,3 km/h (2 Bft) SO 135 16,4 C 25,3 C
09.09.2012 14:51 25,4 C 58 % 1017,8 hPa 0,0 l/m 5,4 km/h (1 Bft) SO 135 16,5 C 25,4 C
09.09.2012 14:56 25,5 C 57 % 1017,8 hPa 0,0 l/m 13,3 km/h (3 Bft) SO 135 16,3 C 25,5 C
09.09.2012 15:01 25,4 C 57 % 1017,8 hPa 0,0 l/m 14,0 km/h (3 Bft) S-SO 157 16,2 C 25,4 C
09.09.2012 15:06 25,4 C 57 % 1017,9 hPa 0,0 l/m 16,2 km/h (3 Bft) SO 135 16,2 C 25,4 C
09.09.2012 15:11 25,4 C 56 % 1017,8 hPa 0,0 l/m 20,9 km/h (4 Bft) S-SO 157 16,0 C 25,4 C
09.09.2012 15:16 25,6 C 57 % 1017,7 hPa 0,0 l/m 12,6 km/h (3 Bft) SO 135 16,4 C 25,6 C
09.09.2012 15:21 25,8 C 56 % 1017,6 hPa 0,0 l/m 11,2 km/h (2 Bft) S-SW 202 16,3 C 25,8 C
09.09.2012 15:26 25,8 C 56 % 1017,6 hPa 0,0 l/m 4,0 km/h (1 Bft) S-SO 157 16,3 C 25,8 C
09.09.2012 15:31 25,7 C 55 % 1017,6 hPa 0,0 l/m 21,2 km/h (4 Bft) SO 135 16,0 C 25,7 C
09.09.2012 15:36 25,6 C 56 % 1017,5 hPa 0,0 l/m 10,4 km/h (2 Bft) O 90 16,2 C 25,6 C
09.09.2012 15:41 25,6 C 56 % 1017,5 hPa 0,0 l/m 9,0 km/h (2 Bft) S-SO 157 16,2 C 25,6 C
09.09.2012 15:46 25,8 C 57 % 1017,4 hPa 0,0 l/m 9,4 km/h (2 Bft) SO 135 16,6 C 25,8 C
09.09.2012 15:51 25,9 C 56 % 1017,3 hPa 0,0 l/m 10,8 km/h (2 Bft) SO 135 16,4 C 25,9 C
09.09.2012 15:56 25,9 C 55 % 1017,3 hPa 0,0 l/m 10,8 km/h (2 Bft) SO 135 16,2 C 25,9 C
09.09.2012 16:01 25,8 C 56 % 1017,2 hPa 0,0 l/m 14,0 km/h (3 Bft) SO 135 16,3 C 25,8 C
09.09.2012 16:06 25,6 C 56 % 1017,1 hPa 0,0 l/m 5,0 km/h (1 Bft) O-SO 112 16,2 C 25,6 C
09.09.2012 16:11 25,6 C 56 % 1017,1 hPa 0,0 l/m 14,4 km/h (3 Bft) S-SO 157 16,2 C 25,6 C
09.09.2012 16:16 25,4 C 56 % 1017,1 hPa 0,0 l/m 8,3 km/h (2 Bft) O-NO 67 16,0 C 25,4 C
09.09.2012 16:21 25,4 C 57 % 1017,0 hPa 0,0 l/m 6,8 km/h (2 Bft) S-SO 157 16,2 C 25,4 C
09.09.2012 16:26 25,4 C 57 % 1017,0 hPa 0,0 l/m 12,6 km/h (3 Bft) S-SO 157 16,2 C 25,4 C
09.09.2012 16:31 25,4 C 57 % 1016,9 hPa 0,0 l/m 11,9 km/h (2 Bft) SO 135 16,2 C 25,4 C
09.09.2012 16:36 25,4 C 57 % 1016,8 hPa 0,0 l/m 4,7 km/h (1 Bft) SO 135 16,2 C 25,4 C
09.09.2012 16:41 25,4 C 57 % 1016,8 hPa 0,0 l/m 6,1 km/h (2 Bft) SO 135 16,2 C 25,4 C
09.09.2012 16:46 25,3 C 57 % 1016,7 hPa 0,0 l/m 5,8 km/h (2 Bft) O-SO 112 16,2 C 25,3 C
09.09.2012 16:51 25,3 C 57 % 1016,6 hPa 0,0 l/m 9,7 km/h (2 Bft) SO 135 16,2 C 25,3 C
09.09.2012 16:56 25,3 C 58 % 1016,6 hPa 0,0 l/m 5,8 km/h (2 Bft) O-NO 67 16,4 C 25,3 C
09.09.2012 17:01 25,3 C 58 % 1016,5 hPa 0,0 l/m 16,2 km/h (3 Bft) SO 135 16,4 C 25,3 C
09.09.2012 17:06 25,1 C 58 % 1016,4 hPa 0,0 l/m 16,9 km/h (3 Bft) S-SO 157 16,2 C 25,1 C
09.09.2012 17:11 25,0 C 58 % 1016,5 hPa 0,0 l/m 10,4 km/h (2 Bft) S-SO 157 16,1 C 25,0 C
09.09.2012 17:16 25,1 C 58 % 1016,4 hPa 0,0 l/m 8,6 km/h (2 Bft) O 90 16,2 C 25,1 C
09.09.2012 17:21 25,1 C 58 % 1016,4 hPa 0,0 l/m 4,7 km/h (1 Bft) SO 135 16,2 C 25,1 C
09.09.2012 17:26 25,2 C 58 % 1016,4 hPa 0,0 l/m 12,2 km/h (2 Bft) S-SO 157 16,3 C 25,2 C
09.09.2012 17:31 25,1 C 58 % 1016,3 hPa 0,0 l/m 8,6 km/h (2 Bft) S-SO 157 16,2 C 25,1 C
09.09.2012 17:36 24,9 C 58 % 1016,3 hPa 0,0 l/m 12,2 km/h (2 Bft) S-SO 157 16,1 C 24,9 C
09.09.2012 17:41 24,9 C 59 % 1016,2 hPa 0,0 l/m 3,2 km/h (1 Bft) SO 135 16,3 C 24,9 C
09.09.2012 17:46 24,8 C 59 % 1016,2 hPa 0,0 l/m 7,6 km/h (2 Bft) NO 45 16,2 C 24,8 C
09.09.2012 17:51 24,7 C 59 % 1016,1 hPa 0,0 l/m 4,0 km/h (1 Bft) O 90 16,1 C 24,7 C
09.09.2012 17:56 24,5 C 59 % 1016,1 hPa 0,0 l/m 23,0 km/h (4 Bft) SO 135 15,9 C 24,5 C
09.09.2012 18:01 24,3 C 59 % 1016,0 hPa 0,0 l/m 14,0 km/h (3 Bft) S 180 15,8 C 24,3 C
09.09.2012 18:06 24,3 C 59 % 1015,9 hPa 0,0 l/m 12,6 km/h (3 Bft) SO 135 15,8 C 24,3 C
09.09.2012 18:11 24,2 C 60 % 1015,9 hPa 0,0 l/m 12,2 km/h (2 Bft) SO 135 15,9 C 24,2 C
09.09.2012 18:16 24,1 C 60 % 1015,8 hPa 0,0 l/m 9,7 km/h (2 Bft) S-SO 157 15,8 C 24,1 C
09.09.2012 18:21 24,1 C 60 % 1015,8 hPa 0,0 l/m 3,2 km/h (1 Bft) SO 135 15,8 C 24,1 C
09.09.2012 18:26 23,9 C 61 % 1015,7 hPa 0,0 l/m 8,6 km/h (2 Bft) S-SO 157 15,9 C 23,9 C
09.09.2012 18:31 23,9 C 61 % 1015,8 hPa 0,0 l/m 4,0 km/h (1 Bft) SO 135 15,9 C 23,9 C
09.09.2012 18:36 23,8 C 61 % 1015,7 hPa 0,0 l/m 7,9 km/h (2 Bft) SO 135 15,8 C 23,8 C
09.09.2012 18:41 23,6 C 62 % 1015,6 hPa 0,0 l/m 4,3 km/h (1 Bft) O 90 15,9 C 23,6 C
09.09.2012 18:46 23,4 C 62 % 1015,6 hPa 0,0 l/m 7,6 km/h (2 Bft) S-SO 157 15,7 C 23,4 C
09.09.2012 18:51 23,3 C 63 % 1015,5 hPa 0,0 l/m 4,0 km/h (1 Bft) SO 135 15,9 C 23,3 C
09.09.2012 18:56 23,1 C 63 % 1015,5 hPa 0,0 l/m 4,0 km/h (1 Bft) SO 135 15,7 C 23,1 C
09.09.2012 19:01 22,9 C 64 % 1015,5 hPa 0,0 l/m 7,9 km/h (2 Bft) S-SO 157 15,7 C 22,9 C
09.09.2012 19:06 22,7 C 64 % 1015,4 hPa 0,0 l/m 7,6 km/h (2 Bft) SO 135 15,5 C 22,7 C
09.09.2012 19:11 22,5 C 65 % 1015,5 hPa 0,0 l/m 9,0 km/h (2 Bft) SO 135 15,6 C 22,5 C
09.09.2012 19:16 22,4 C 65 % 1015,5 hPa 0,0 l/m 7,2 km/h (2 Bft) SO 135 15,5 C 22,4 C
09.09.2012 19:21 22,1 C 66 % 1015,4 hPa 0,0 l/m 4,3 km/h (1 Bft) S-SO 157 15,4 C 22,1 C
09.09.2012 19:26 21,9 C 67 % 1015,4 hPa 0,0 l/m 7,6 km/h (2 Bft) S-SO 157 15,5 C 21,9 C
09.09.2012 19:31 21,8 C 67 % 1015,4 hPa 0,0 l/m 6,1 km/h (2 Bft) O-SO 112 15,4 C 21,8 C
09.09.2012 19:36 21,7 C 67 % 1015,3 hPa 0,0 l/m 5,0 km/h (1 Bft) O-SO 112 15,3 C 21,7 C
09.09.2012 19:41 21,5 C 68 % 1015,3 hPa 0,0 l/m 2,9 km/h (1 Bft) S-SO 157 15,3 C 21,5 C
09.09.2012 19:46 21,4 C 68 % 1015,1 hPa 0,0 l/m 7,6 km/h (2 Bft) SO 135 15,2 C 21,4 C
09.09.2012 19:51 21,2 C 69 % 1015,0 hPa 0,0 l/m 3,6 km/h (1 Bft) SO 135 15,3 C 21,2 C
09.09.2012 19:56 21,0 C 70 % 1015,1 hPa 0,0 l/m 2,5 km/h (1 Bft) O-SO 112 15,3 C 21,0 C
09.09.2012 20:01 20,9 C 70 % 1015,2 hPa 0,0 l/m 3,6 km/h (1 Bft) O-SO 112 15,2 C 20,9 C
09.09.2012 20:06 20,8 C 71 % 1015,1 hPa 0,0 l/m 3,2 km/h (1 Bft) O-SO 112 15,3 C 20,8 C
09.09.2012 20:11 20,6 C 72 % 1015,1 hPa 0,0 l/m 2,5 km/h (1 Bft) SO 135 15,4 C 20,6 C
09.09.2012 20:16 20,4 C 72 % 1015,1 hPa 0,0 l/m 5,8 km/h (2 Bft) SO 135 15,2 C 20,4 C
09.09.2012 20:21 20,3 C 73 % 1015,1 hPa 0,0 l/m 9,0 km/h (2 Bft) SO 135 15,3 C 20,3 C
09.09.2012 20:26 20,2 C 73 % 1015,3 hPa 0,0 l/m 5,8 km/h (2 Bft) O-SO 112 15,2 C 20,2 C
09.09.2012 20:31 20,1 C 73 % 1015,2 hPa 0,0 l/m 2,2 km/h (1 Bft) O-SO 112 15,1 C 20,1 C
09.09.2012 20:36 20,0 C 73 % 1015,1 hPa 0,0 l/m 5,0 km/h (1 Bft) SO 135 15,0 C 20,0 C
09.09.2012 20:41 19,9 C 74 % 1015,2 hPa 0,0 l/m 8,3 km/h (2 Bft) SO 135 15,1 C 19,9 C
09.09.2012 20:46 19,9 C 74 % 1015,3 hPa 0,0 l/m 10,1 km/h (2 Bft) S-SO 157 15,1 C 19,9 C
09.09.2012 20:51 19,8 C 74 % 1015,1 hPa 0,0 l/m 7,6 km/h (2 Bft) S-SO 157 15,0 C 19,8 C
09.09.2012 20:56 19,8 C 74 % 1015,1 hPa 0,0 l/m 8,6 km/h (2 Bft) S-SO 157 15,0 C 19,8 C
09.09.2012 21:01 19,8 C 75 % 1015,3 hPa 0,0 l/m 6,1 km/h (2 Bft) SO 135 15,2 C 19,8 C
09.09.2012 21:06 19,6 C 75 % 1015,2 hPa 0,0 l/m 3,6 km/h (1 Bft) O-SO 112 15,0 C 19,6 C
09.09.2012 21:11 19,5 C 75 % 1015,2 hPa 0,0 l/m 6,1 km/h (2 Bft) SO 135 14,9 C 19,5 C
09.09.2012 21:16 19,4 C 75 % 1015,3 hPa 0,0 l/m 5,8 km/h (2 Bft) O-SO 112 14,8 C 19,4 C
09.09.2012 21:21 19,4 C 76 % 1015,3 hPa 0,0 l/m 6,1 km/h (2 Bft) O-SO 112 15,1 C 19,4 C
09.09.2012 21:26 19,3 C 76 % 1015,2 hPa 0,0 l/m 8,3 km/h (2 Bft) S-SO 157 15,0 C 19,3 C
09.09.2012 21:31 19,2 C 76 % 1015,3 hPa 0,0 l/m 6,5 km/h (2 Bft) S 180 14,9 C 19,2 C
09.09.2012 21:36 19,1 C 76 % 1015,4 hPa 0,0 l/m 5,4 km/h (1 Bft) SO 135 14,8 C 19,1 C
09.09.2012 21:41 19,1 C 77 % 1015,4 hPa 0,0 l/m 7,2 km/h (2 Bft) SO 135 15,0 C 19,1 C
09.09.2012 21:46 19,0 C 77 % 1015,3 hPa 0,0 l/m 6,1 km/h (2 Bft) SO 135 14,9 C 19,0 C
09.09.2012 21:51 18,9 C 77 % 1015,3 hPa 0,0 l/m 6,8 km/h (2 Bft) SO 135 14,8 C 18,9 C
09.09.2012 21:56 18,9 C 77 % 1015,2 hPa 0,0 l/m 3,6 km/h (1 Bft) O-SO 112 14,8 C 18,9 C
09.09.2012 22:01 18,8 C 78 % 1015,3 hPa 0,0 l/m 7,2 km/h (2 Bft) O-SO 112 14,9 C 18,8 C
09.09.2012 22:06 18,7 C 78 % 1015,2 hPa 0,0 l/m 4,0 km/h (1 Bft) O-SO 112 14,8 C 18,7 C
09.09.2012 22:11 18,6 C 78 % 1015,1 hPa 0,0 l/m 2,5 km/h (1 Bft) SO 135 14,7 C 18,6 C
09.09.2012 22:16 18,5 C 79 % 1015,1 hPa 0,0 l/m 2,5 km/h (1 Bft) O-SO 112 14,8 C 18,5 C
09.09.2012 22:21 18,4 C 79 % 1015,1 hPa 0,0 l/m 2,5 km/h (1 Bft) SO 135 14,7 C 18,4 C
09.09.2012 22:26 18,4 C 79 % 1015,1 hPa 0,0 l/m 2,5 km/h (1 Bft) O-SO 112 14,7 C 18,4 C
09.09.2012 22:31 18,3 C 79 % 1015,1 hPa 0,0 l/m 4,7 km/h (1 Bft) SO 135 14,6 C 18,3 C
09.09.2012 22:36 18,2 C 79 % 1015,0 hPa 0,0 l/m 3,2 km/h (1 Bft) O-SO 112 14,5 C 18,2 C
09.09.2012 22:41 18,2 C 79 % 1015,0 hPa 0,0 l/m 5,8 km/h (2 Bft) S-SO 157 14,5 C 18,2 C
09.09.2012 22:46 18,1 C 80 % 1015,0 hPa 0,0 l/m 4,0 km/h (1 Bft) O-SO 112 14,6 C 18,1 C
09.09.2012 22:51 18,0 C 80 % 1015,0 hPa 0,0 l/m 5,8 km/h (2 Bft) S-SO 157 14,5 C 18,0 C
09.09.2012 22:56 17,9 C 80 % 1015,0 hPa 0,0 l/m 2,2 km/h (1 Bft) SO 135 14,4 C 17,9 C
09.09.2012 23:01 17,9 C 81 % 1015,0 hPa 0,0 l/m 3,6 km/h (1 Bft) SO 135 14,6 C 17,9 C
09.09.2012 23:06 17,9 C 81 % 1015,0 hPa 0,0 l/m 5,0 km/h (1 Bft) O-SO 112 14,6 C 17,9 C
09.09.2012 23:11 17,8 C 81 % 1015,0 hPa 0,0 l/m 4,0 km/h (1 Bft) S-SO 157 14,5 C 17,8 C
09.09.2012 23:16 17,8 C 81 % 1015,0 hPa 0,0 l/m 3,6 km/h (1 Bft) SO 135 14,5 C 17,8 C
09.09.2012 23:21 17,8 C 81 % 1015,0 hPa 0,0 l/m 5,8 km/h (2 Bft) S-SO 157 14,5 C 17,8 C
09.09.2012 23:26 17,7 C 81 % 1015,0 hPa 0,0 l/m 5,8 km/h (2 Bft) SO 135 14,4 C 17,7 C
09.09.2012 23:31 17,6 C 82 % 1015,0 hPa 0,0 l/m 5,8 km/h (2 Bft) O-SO 112 14,5 C 17,6 C
09.09.2012 23:36 17,6 C 82 % 1015,1 hPa 0,0 l/m 3,2 km/h (1 Bft) O-SO 112 14,5 C 17,6 C
09.09.2012 23:41 17,6 C 82 % 1015,1 hPa 0,0 l/m 6,1 km/h (2 Bft) SO 135 14,5 C 17,6 C
09.09.2012 23:46 17,6 C 82 % 1015,0 hPa 0,0 l/m 2,9 km/h (1 Bft) O-SO 112 14,5 C 17,6 C
09.09.2012 23:51 17,6 C 82 % 1015,0 hPa 0,0 l/m 4,3 km/h (1 Bft) O-SO 112 14,5 C 17,6 C
09.09.2012 23:56 17,6 C 82 % 1015,0 hPa 0,0 l/m 5,8 km/h (2 Bft) O-SO 112 14,5 C 17,6 C
_ Min-Zeit 02:51 15:31 19:51 - 00:01 - - 02:51 02:51
Minimum _ 11,9 C 55 % 1015,0 hPa - 0,0 km/h (0 Bft) - - 10,0 C 11,9 C
_ Max-Zeit 15:51 07:16 01:01 02:26 17:56 - - 15:46 15:51
Maximum _ 25,9 C 91 % 1020,8 hPa 0,5 l/m 23,0 km/h
SO (4 Bft)
- - 16,6 C 25,9 C
Durchschnitt _ 18,3 C 77 % 1018,6 hPa #0,5 l/m 4,9 km/h (1 Bft) SO - 13,8 C 18,3 C
(c) by David Heller